createdAt,value
2022-07-29T00:01:41.494Z,101089.27
2022-07-29T00:04:09.424Z,101090.91
2022-07-29T00:06:37.252Z,101092.52
2022-07-29T00:09:05.609Z,101087.98
2022-07-29T00:11:33.487Z,101091.20
2022-07-29T00:14:01.652Z,101089.59
2022-07-29T00:16:29.900Z,101096.48
2022-07-29T00:19:01.921Z,101097.98
2022-07-29T00:21:30.610Z,101096.27
2022-07-29T00:23:58.670Z,101100.23
2022-07-29T00:26:28.812Z,101102.91
2022-07-29T00:29:23.715Z,101102.20
2022-07-29T00:31:44.737Z,101108.75
2022-07-29T00:34:30.961Z,101109.64
2022-07-29T00:36:59.038Z,101108.36
2022-07-29T00:39:26.955Z,101102.04
2022-07-29T00:41:55.594Z,101088.41
2022-07-29T00:44:23.706Z,101099.85
2022-07-29T00:46:51.548Z,101100.63
2022-07-29T00:49:19.555Z,101095.27
2022-07-29T00:51:48.838Z,101094.60
2022-07-29T00:54:17.133Z,101090.51
2022-07-29T00:56:45.472Z,101088.75
2022-07-29T00:59:13.588Z,101087.41
2022-07-29T01:01:41.427Z,101088.83
2022-07-29T01:04:09.476Z,101087.69
2022-07-29T01:06:37.699Z,101091.58
2022-07-29T01:09:06.956Z,101095.53
2022-07-29T01:11:35.186Z,101095.05
2022-07-29T01:14:08.877Z,101094.76
2022-07-29T01:17:02.901Z,101094.26
2022-07-29T01:19:52.106Z,101095.73
2022-07-29T01:23:03.700Z,101092.59
2022-07-29T01:26:01.351Z,101095.38
2022-07-29T01:28:48.859Z,101096.30
2022-07-29T01:31:25.402Z,101095.71
2022-07-29T01:34:02.648Z,101095.59
2022-07-29T01:36:38.482Z,101098.98
2022-07-29T01:39:14.996Z,101082.48
2022-07-29T01:41:51.923Z,101100.50
2022-07-29T01:44:32.326Z,101102.46
2022-07-29T01:47:06.022Z,101106.75
2022-07-29T01:49:37.940Z,101101.73
2022-07-29T01:52:19.305Z,101101.89
2022-07-29T01:54:55.333Z,101102.77
2022-07-29T01:57:28.877Z,101105.33
2022-07-29T01:59:59.726Z,101105.50
2022-07-29T02:02:29.695Z,101107.45
2022-07-29T02:05:00.094Z,101109.15
2022-07-29T02:07:30.687Z,101113.05
2022-07-29T02:10:01.589Z,101093.31
2022-07-29T02:12:32.188Z,101107.24
2022-07-29T02:15:02.469Z,101106.64
2022-07-29T02:17:38.823Z,101103.65
2022-07-29T02:20:10.528Z,101104.55
2022-07-29T02:22:40.345Z,101107.23
2022-07-29T02:25:14.022Z,101106.47
2022-07-29T02:27:43.831Z,101107.20
2022-07-29T02:30:13.772Z,101105.05
2022-07-29T02:32:44.488Z,101104.06
2022-07-29T02:35:17.139Z,101101.91
2022-07-29T02:38:07.163Z,101090.47
2022-07-29T02:40:38.786Z,101106.29
2022-07-29T02:43:08.373Z,101106.94
2022-07-29T02:45:36.289Z,101112.94
2022-07-29T02:48:10.735Z,101114.48
2022-07-29T02:50:45.460Z,101113.85
2022-07-29T02:53:17.579Z,101108.17
2022-07-29T02:55:49.985Z,101111.67
2022-07-29T02:58:31.973Z,101112.64
2022-07-29T03:01:04.201Z,101110.98
2022-07-29T03:03:38.548Z,101106.70
2022-07-29T03:06:08.380Z,101109.40
2022-07-29T03:08:37.132Z,101113.36
2022-07-29T03:11:05.937Z,101111.69
2022-07-29T03:13:34.268Z,101114.67
2022-07-29T03:16:02.732Z,101115.86
2022-07-29T03:18:32.079Z,101112.01
2022-07-29T03:21:00.161Z,101110.27
2022-07-29T03:23:28.961Z,101112.20
2022-07-29T03:26:03.814Z,101113.19
2022-07-29T03:28:31.955Z,101116.86
2022-07-29T03:31:00.413Z,101112.46
2022-07-29T03:33:31.495Z,101117.70
2022-07-29T03:35:59.513Z,101117.43
2022-07-29T03:38:30.481Z,101120.16
2022-07-29T03:41:04.564Z,101117.95
2022-07-29T03:43:36.718Z,101119.34
2022-07-29T03:46:07.747Z,101125.98
2022-07-29T03:48:40.838Z,101122.80
2022-07-29T03:51:09.143Z,101127.63
2022-07-29T03:53:37.713Z,101123.25
2022-07-29T03:56:07.824Z,101119.27
2022-07-29T03:58:35.881Z,101118.20
2022-07-29T04:01:04.048Z,101117.10
2022-07-29T04:03:32.047Z,101115.73
2022-07-29T04:06:02.770Z,101122.23
2022-07-29T04:08:30.695Z,101125.30
2022-07-29T04:10:58.668Z,101134.83
2022-07-29T04:13:26.917Z,101130.50
2022-07-29T04:15:55.079Z,101128.47
2022-07-29T04:18:23.129Z,101119.92
2022-07-29T04:20:51.781Z,101119.85
2022-07-29T04:23:19.648Z,101118.21
2022-07-29T04:25:48.482Z,101116.37
2022-07-29T04:28:16.483Z,101118.11
2022-07-29T04:30:45.113Z,101118.25
2022-07-29T04:33:13.103Z,101116.48
2022-07-29T04:35:49.826Z,101114.90
2022-07-29T04:38:18.565Z,101120.02
2022-07-29T04:40:46.841Z,101124.55
2022-07-29T04:43:16.331Z,101124.71
2022-07-29T04:45:44.213Z,101128.23
2022-07-29T04:48:12.418Z,101125.18
2022-07-29T04:50:41.184Z,101128.58
2022-07-29T04:53:09.166Z,101132.72
2022-07-29T04:55:38.882Z,101129.42
2022-07-29T04:58:07.059Z,101129.39
2022-07-29T05:00:35.650Z,101131.05
2022-07-29T05:03:05.024Z,101129.43
2022-07-29T05:05:33.088Z,101131.02
2022-07-29T05:08:01.034Z,101133.13
2022-07-29T05:10:29.963Z,101136.83
2022-07-29T05:12:57.986Z,101146.33
2022-07-29T05:15:25.931Z,101150.36
2022-07-29T05:17:54.223Z,101151.77
2022-07-29T05:20:27.158Z,101145.92
2022-07-29T05:22:56.850Z,101148.22
2022-07-29T05:25:43.433Z,101145.25
2022-07-29T05:28:13.213Z,101147.70
2022-07-29T05:30:41.074Z,101146.70
2022-07-29T05:33:09.036Z,101145.35
2022-07-29T05:36:00.343Z,101143.61
2022-07-29T05:38:30.659Z,101137.74
2022-07-29T05:41:00.114Z,101139.83
2022-07-29T05:43:29.701Z,101140.07
2022-07-29T05:45:58.115Z,101137.88
2022-07-29T05:48:26.599Z,101134.85
2022-07-29T05:50:54.524Z,101133.36
2022-07-29T05:53:22.401Z,101131.20
2022-07-29T05:55:51.104Z,101133.95
2022-07-29T05:58:19.216Z,101130.42
2022-07-29T06:00:47.047Z,101126.61
2022-07-29T06:03:15.587Z,101125.05
2022-07-29T06:05:43.445Z,101125.01
2022-07-29T06:08:11.326Z,101127.36
2022-07-29T06:10:39.460Z,101125.97
2022-07-29T06:13:07.843Z,101119.61
2022-07-29T06:15:35.652Z,101123.07
2022-07-29T06:18:03.835Z,101121.44
2022-07-29T06:20:33.070Z,101122.55
2022-07-29T06:23:01.182Z,101121.91
2022-07-29T06:25:35.874Z,101120.97
2022-07-29T06:28:04.152Z,101117.93
2022-07-29T06:30:32.511Z,101122.63
2022-07-29T06:33:01.408Z,101124.33
2022-07-29T06:35:38.973Z,101122.42
2022-07-29T06:38:31.649Z,101121.14
2022-07-29T06:41:06.967Z,101121.66
2022-07-29T06:43:51.821Z,101128.59
2022-07-29T06:46:27.901Z,101131.98
2022-07-29T06:48:56.125Z,101129.90
2022-07-29T06:51:24.320Z,101127.71
2022-07-29T06:53:58.304Z,101126.86
2022-07-29T06:56:28.330Z,101129.96
2022-07-29T06:58:56.496Z,101122.54
2022-07-29T07:01:24.547Z,101121.36
2022-07-29T07:03:52.973Z,101121.95
2022-07-29T07:06:20.774Z,101119.60
2022-07-29T07:08:48.732Z,101122.01
2022-07-29T07:11:17.278Z,101120.39
2022-07-29T07:13:45.108Z,101122.67
2022-07-29T07:16:13.576Z,101123.54
2022-07-29T07:18:41.848Z,101123.79
2022-07-29T07:21:09.733Z,101119.64
2022-07-29T07:23:37.551Z,101118.71
2022-07-29T07:26:06.944Z,101117.91
2022-07-29T07:28:34.786Z,101118.59
2022-07-29T07:31:02.570Z,101117.08
2022-07-29T07:33:31.058Z,101116.35
2022-07-29T07:35:58.896Z,101119.38
2022-07-29T07:38:26.642Z,101117.41
2022-07-29T07:40:54.795Z,101110.27
2022-07-29T07:43:23.668Z,101120.90
2022-07-29T07:45:51.495Z,101119.05
2022-07-29T07:48:21.925Z,101122.18
2022-07-29T07:50:50.486Z,101120.85
2022-07-29T07:53:18.669Z,101118.92
2022-07-29T07:56:09.428Z,101118.51
2022-07-29T07:58:36.336Z,101115.04
2022-07-29T08:01:04.595Z,101115.34
2022-07-29T08:03:32.540Z,101114.84
2022-07-29T08:06:00.374Z,101117.75
2022-07-29T08:08:28.592Z,101118.08
2022-07-29T08:11:03.129Z,101114.11
2022-07-29T08:13:33.992Z,101111.20
2022-07-29T08:16:02.755Z,101112.02
2022-07-29T08:18:32.069Z,101098.97
2022-07-29T08:21:00.377Z,101110.19
2022-07-29T08:23:45.748Z,101098.17
2022-07-29T08:26:17.140Z,101114.95
2022-07-29T08:28:46.999Z,101115.72
2022-07-29T08:31:15.459Z,101109.95
2022-07-29T08:33:43.954Z,101109.73
2022-07-29T08:36:11.798Z,101114.55
2022-07-29T08:38:39.769Z,101112.26
2022-07-29T08:41:07.874Z,101110.09
2022-07-29T08:43:38.469Z,101103.91
2022-07-29T08:46:06.772Z,101105.37
2022-07-29T08:48:35.553Z,101109.48
2022-07-29T08:51:04.685Z,101105.74
2022-07-29T08:53:34.092Z,101103.41
2022-07-29T08:56:03.248Z,101099.96
2022-07-29T08:58:38.188Z,101101.88
2022-07-29T09:01:12.454Z,101096.70
2022-07-29T09:03:42.552Z,101098.52
2022-07-29T09:06:19.262Z,101097.38
2022-07-29T09:08:47.571Z,101086.36
2022-07-29T09:11:15.773Z,101095.45
2022-07-29T09:13:43.666Z,101093.61
2022-07-29T09:16:11.536Z,101087.95
2022-07-29T09:18:44.389Z,101074.96
2022-07-29T09:21:36.210Z,101088.45
2022-07-29T09:24:14.658Z,101087.54
2022-07-29T09:26:47.226Z,101085.23
2022-07-29T09:29:26.061Z,101074.73
2022-07-29T09:31:55.886Z,101085.45
2022-07-29T09:34:30.804Z,101083.66
2022-07-29T09:36:59.051Z,101082.34
2022-07-29T09:39:32.087Z,101084.05
2022-07-29T09:42:05.610Z,101086.48
2022-07-29T09:44:47.206Z,101089.16
2022-07-29T09:47:16.225Z,101089.77
2022-07-29T09:50:12.644Z,101083.40
2022-07-29T09:52:49.692Z,101077.60
2022-07-29T09:55:19.788Z,101074.45
2022-07-29T09:57:51.999Z,101075.11
2022-07-29T10:00:21.623Z,101072.38
2022-07-29T10:02:52.712Z,101069.41
2022-07-29T10:05:26.283Z,101061.00
2022-07-29T10:07:58.804Z,101059.27
2022-07-29T10:10:35.261Z,101058.67
2022-07-29T10:13:13.434Z,101051.36
2022-07-29T10:15:47.021Z,101051.07
2022-07-29T10:18:18.324Z,101048.36
2022-07-29T10:20:46.909Z,101053.58
2022-07-29T10:23:15.526Z,101048.69
2022-07-29T10:25:46.369Z,101047.88
2022-07-29T10:28:16.742Z,101045.78
2022-07-29T10:30:46.780Z,101045.73
2022-07-29T10:33:24.130Z,101041.73
2022-07-29T10:36:24.791Z,101042.70
2022-07-29T10:39:15.936Z,101028.73
2022-07-29T10:42:20.094Z,101040.61
2022-07-29T10:44:58.179Z,101037.55
2022-07-29T10:47:29.359Z,101036.59
2022-07-29T10:50:01.090Z,101038.58
2022-07-29T10:52:50.698Z,101038.61
2022-07-29T10:55:54.508Z,101040.61
2022-07-29T10:58:27.478Z,101035.97
2022-07-29T11:00:58.839Z,101031.39
2022-07-29T11:03:49.696Z,101023.98
2022-07-29T11:06:26.729Z,101021.84
2022-07-29T11:09:20.134Z,101022.27
2022-07-29T11:11:51.659Z,101017.77
2022-07-29T11:15:00.333Z,101016.25
2022-07-29T11:17:37.388Z,101016.65
2022-07-29T11:20:45.907Z,101013.18
2022-07-29T11:23:33.550Z,101007.59
2022-07-29T11:26:23.471Z,101012.36
2022-07-29T11:28:52.313Z,101012.44
2022-07-29T11:31:40.437Z,101010.11
2022-07-29T11:34:33.320Z,101005.98
2022-07-29T11:37:15.092Z,101001.29
2022-07-29T11:40:00.293Z,100996.37
2022-07-29T11:42:34.228Z,101000.66
2022-07-29T11:45:43.164Z,101000.80
2022-07-29T11:48:29.971Z,101001.77
2022-07-29T11:50:58.526Z,101004.02
2022-07-29T11:53:29.179Z,101001.19
2022-07-29T11:56:03.990Z,100996.66
2022-07-29T11:58:32.955Z,100989.59
2022-07-29T12:01:04.519Z,100988.68
2022-07-29T12:03:35.948Z,100983.80
2022-07-29T12:06:13.602Z,100982.60
2022-07-29T12:08:44.172Z,100979.45
2022-07-29T12:11:23.582Z,100981.88
2022-07-29T12:13:52.928Z,100971.92
2022-07-29T12:16:25.722Z,100980.13
2022-07-29T12:19:03.798Z,100982.67
2022-07-29T12:21:56.445Z,100985.59
2022-07-29T12:24:27.671Z,100969.19
2022-07-29T12:26:58.243Z,100978.96
2022-07-29T12:29:35.203Z,100980.08
2022-07-29T12:32:14.351Z,100979.95
2022-07-29T12:34:43.282Z,100980.14
2022-07-29T12:37:11.611Z,100982.13
2022-07-29T12:39:40.317Z,100976.32
2022-07-29T12:42:18.440Z,100978.45
2022-07-29T12:44:48.774Z,100977.39
2022-07-29T12:47:19.381Z,100978.40
2022-07-29T12:49:48.830Z,100979.05
2022-07-29T12:52:29.108Z,100961.39
2022-07-29T12:55:06.238Z,100967.02
2022-07-29T13:00:36.364Z,100958.98
2022-07-29T13:03:04.792Z,100964.29
2022-07-29T13:05:49.082Z,100956.73
2022-07-29T13:08:21.962Z,100952.00
2022-07-29T13:10:57.784Z,100951.23
2022-07-29T13:13:26.006Z,100936.70
2022-07-29T13:16:08.801Z,100948.59
2022-07-29T13:18:40.089Z,100948.04
2022-07-29T13:21:18.730Z,100942.29
2022-07-29T13:23:47.214Z,100943.25
2022-07-29T13:26:17.341Z,100937.67
2022-07-29T13:28:45.213Z,100934.80
2022-07-29T13:31:13.673Z,100930.61
2022-07-29T13:33:41.766Z,100929.09
2022-07-29T13:36:09.524Z,100929.23
2022-07-29T13:38:37.736Z,100930.71
2022-07-29T13:41:05.721Z,100928.79
2022-07-29T13:43:34.184Z,100931.86
2022-07-29T13:46:02.806Z,100924.79
2022-07-29T13:48:30.940Z,100926.86
2022-07-29T13:50:58.780Z,100922.74
2022-07-29T13:53:27.386Z,100912.77
2022-07-29T13:55:56.172Z,100900.80
2022-07-29T13:58:24.529Z,100913.70
2022-07-29T14:00:53.051Z,100910.34
2022-07-29T14:03:21.016Z,100908.95
2022-07-29T14:05:49.196Z,100908.58
2022-07-29T14:08:17.526Z,100905.05
2022-07-29T14:10:45.349Z,100905.33
2022-07-29T14:13:24.642Z,100904.02
2022-07-29T14:15:54.256Z,100902.61
2022-07-29T14:18:22.110Z,100901.35
2022-07-29T14:20:50.572Z,100900.39
2022-07-29T14:23:20.200Z,100887.96
2022-07-29T14:25:49.392Z,100899.14
2022-07-29T14:28:17.953Z,100895.96
2022-07-29T14:30:46.319Z,100894.55
2022-07-29T14:33:14.416Z,100883.14
2022-07-29T14:35:42.415Z,100892.59
2022-07-29T14:38:10.880Z,100894.11
2022-07-29T14:40:39.045Z,100893.05
2022-07-29T14:43:06.928Z,100893.04
2022-07-29T14:45:35.195Z,100887.20
2022-07-29T14:48:03.169Z,100884.55
2022-07-29T14:50:32.074Z,100884.06
2022-07-29T14:53:03.715Z,100880.03
2022-07-29T14:55:31.532Z,100876.70
2022-07-29T14:58:08.771Z,100871.23
2022-07-29T15:00:38.874Z,100870.30
2022-07-29T15:03:10.949Z,100861.46
2022-07-29T15:05:39.813Z,100858.42
2022-07-29T15:08:09.167Z,100856.89
2022-07-29T15:10:37.483Z,100851.04
2022-07-29T15:13:05.881Z,100843.60
2022-07-29T15:15:33.739Z,100841.10
2022-07-29T15:18:01.924Z,100844.59
2022-07-29T15:20:30.329Z,100846.70
2022-07-29T15:22:58.305Z,100844.58
2022-07-29T15:25:28.223Z,100846.05
2022-07-29T15:28:01.162Z,100841.03
2022-07-29T15:30:34.053Z,100841.87
2022-07-29T15:33:03.580Z,100839.08
2022-07-29T15:35:31.849Z,100837.32
2022-07-29T15:37:59.769Z,100832.15
2022-07-29T15:40:27.861Z,100833.58
2022-07-29T15:42:56.007Z,100835.88
2022-07-29T15:45:24.035Z,100836.32
2022-07-29T15:47:52.258Z,100831.91
2022-07-29T15:50:21.288Z,100828.02
2022-07-29T15:52:49.094Z,100828.33
2022-07-29T15:55:17.391Z,100830.22
2022-07-29T15:57:45.295Z,100829.30
2022-07-29T16:00:13.890Z,100826.95
2022-07-29T16:02:41.994Z,100815.19
2022-07-29T16:05:10.473Z,100828.31
2022-07-29T16:07:38.276Z,100832.58
2022-07-29T16:10:08.070Z,100829.99
2022-07-29T16:12:39.978Z,100824.90
2022-07-29T16:15:10.443Z,100806.34
2022-07-29T16:17:39.561Z,100817.43
2022-07-29T16:20:08.302Z,100816.08
2022-07-29T16:22:36.471Z,100820.52
2022-07-29T16:25:05.012Z,100820.40
2022-07-29T16:27:37.634Z,100820.25
2022-07-29T16:30:10.005Z,100812.98
2022-07-29T16:32:38.017Z,100810.90
2022-07-29T16:35:07.214Z,100813.45
2022-07-29T16:37:36.886Z,100817.38
2022-07-29T16:40:06.389Z,100822.80
2022-07-29T16:42:49.167Z,100814.09
2022-07-29T16:45:21.142Z,100833.17
2022-07-29T16:47:50.022Z,100833.81
2022-07-29T16:50:18.375Z,100840.09
2022-07-29T16:52:46.203Z,100842.09
2022-07-29T16:55:14.212Z,100843.50
2022-07-29T16:57:43.947Z,100841.94
2022-07-29T17:00:12.503Z,100841.84
2022-07-29T17:02:40.522Z,100843.07
2022-07-29T17:05:10.753Z,100839.02
2022-07-29T17:07:40.287Z,100840.67
2022-07-29T17:10:09.647Z,100840.40
2022-07-29T17:12:39.262Z,100840.66
2022-07-29T17:15:11.603Z,100841.31
2022-07-29T17:17:56.454Z,100837.35
2022-07-29T17:20:26.825Z,100824.50
2022-07-29T17:22:55.519Z,100839.70
2022-07-29T17:25:24.383Z,100836.65
2022-07-29T17:27:55.330Z,100833.83
2022-07-29T17:30:25.673Z,100832.62
2022-07-29T17:32:53.929Z,100838.65
2022-07-29T17:35:40.622Z,100827.02
2022-07-29T17:38:08.813Z,100835.49
2022-07-29T17:40:36.611Z,100825.31
2022-07-29T17:43:05.278Z,100839.67
2022-07-29T17:45:49.914Z,100846.69
2022-07-29T17:48:19.205Z,100847.01
2022-07-29T17:50:48.029Z,100849.14
2022-07-29T17:53:16.875Z,100847.73
2022-07-29T17:55:46.202Z,100844.29
2022-07-29T17:58:14.981Z,100844.72
2022-07-29T18:00:43.066Z,100840.13
2022-07-29T18:03:11.246Z,100845.42
2022-07-29T18:05:39.407Z,100845.36
2022-07-29T18:08:07.272Z,100845.38
2022-07-29T18:10:35.243Z,100842.97
2022-07-29T18:13:04.259Z,100843.91
2022-07-29T18:15:32.169Z,100834.05
2022-07-29T18:18:00.089Z,100843.13
2022-07-29T18:20:28.531Z,100843.97
2022-07-29T18:22:56.477Z,100832.18
2022-07-29T18:25:25.873Z,100845.02
2022-07-29T18:27:57.250Z,100846.36
2022-07-29T18:30:29.623Z,100848.79
2022-07-29T18:33:19.834Z,100837.35
2022-07-29T18:35:50.094Z,100844.05
2022-07-29T18:38:18.609Z,100838.55
2022-07-29T18:40:46.535Z,100825.20
2022-07-29T18:43:14.819Z,100827.71
2022-07-29T18:45:42.960Z,100847.10
2022-07-29T18:48:12.909Z,100846.48
2022-07-29T18:50:41.862Z,100845.82
2022-07-29T18:53:10.156Z,100847.66
2022-07-29T18:55:38.051Z,100845.23
2022-07-29T18:58:06.111Z,100844.50
2022-07-29T19:00:34.322Z,100847.30
2022-07-29T19:03:03.522Z,100858.67
2022-07-29T19:05:31.725Z,100857.78
2022-07-29T19:07:59.921Z,100859.50
2022-07-29T19:10:27.730Z,100855.56
2022-07-29T19:12:56.902Z,100853.31
2022-07-29T19:15:25.138Z,100858.23
2022-07-29T19:17:56.551Z,100858.77
2022-07-29T19:20:27.494Z,100863.85
2022-07-29T19:22:55.538Z,100870.30
2022-07-29T19:25:23.471Z,100870.38
2022-07-29T19:27:51.907Z,100868.61
2022-07-29T19:30:20.098Z,100863.26
2022-07-29T19:32:48.138Z,100857.38
2022-07-29T19:35:33.199Z,100857.92
2022-07-29T19:38:02.688Z,100861.65
2022-07-29T19:40:30.717Z,100865.39
2022-07-29T19:42:59.207Z,100868.52
2022-07-29T19:45:27.075Z,100867.01
2022-07-29T19:48:00.682Z,100870.14
2022-07-29T19:50:29.984Z,100871.73
2022-07-29T19:52:58.169Z,100875.23
2022-07-29T19:55:27.128Z,100883.89
2022-07-29T19:57:55.421Z,100870.09
2022-07-29T20:00:24.284Z,100878.58
2022-07-29T20:02:52.678Z,100876.63
2022-07-29T20:05:20.947Z,100876.99
2022-07-29T20:07:56.382Z,100873.89
2022-07-29T20:10:24.499Z,100876.79
2022-07-29T20:12:55.018Z,100867.97
2022-07-29T20:15:23.797Z,100873.44
2022-07-29T20:17:56.891Z,100875.08
2022-07-29T20:20:26.194Z,100877.96
2022-07-29T20:22:54.591Z,100878.05
2022-07-29T20:25:23.512Z,100879.73
2022-07-29T20:27:52.599Z,100864.04
2022-07-29T20:30:22.295Z,100880.09
2022-07-29T20:32:57.468Z,100877.39
2022-07-29T20:35:26.346Z,100878.36
2022-07-29T20:37:56.628Z,100878.47
2022-07-29T20:40:26.594Z,100877.10
2022-07-29T20:42:56.348Z,100857.52
2022-07-29T20:45:27.178Z,100864.88
2022-07-29T20:47:55.405Z,100866.77
2022-07-29T20:50:24.725Z,100863.90
2022-07-29T20:52:53.363Z,100864.83
2022-07-29T20:55:23.795Z,100859.66
2022-07-29T20:57:55.942Z,100857.82
2022-07-29T21:00:24.368Z,100860.85
2022-07-29T21:02:52.421Z,100854.25
2022-07-29T21:05:20.586Z,100855.86
2022-07-29T21:07:48.595Z,100858.04
2022-07-29T21:10:18.440Z,100858.10
2022-07-29T21:12:46.908Z,100859.60
2022-07-29T21:15:16.321Z,100861.11
2022-07-29T21:17:52.195Z,100858.82
2022-07-29T21:20:21.150Z,100856.40
2022-07-29T21:22:49.138Z,100853.91
2022-07-29T21:25:17.458Z,100853.64
2022-07-29T21:28:10.525Z,100856.77
2022-07-29T21:30:38.424Z,100857.45
2022-07-29T21:33:09.470Z,100857.32
2022-07-29T21:36:06.311Z,100856.77
2022-07-29T21:38:29.339Z,100846.16
2022-07-29T21:40:57.695Z,100843.92
2022-07-29T21:43:29.432Z,100847.61
2022-07-29T21:45:58.974Z,100845.48
2022-07-29T21:48:28.660Z,100844.34
2022-07-29T21:50:57.544Z,100829.21
2022-07-29T21:53:28.135Z,100838.92
2022-07-29T21:55:56.040Z,100839.50
2022-07-29T21:58:24.867Z,100840.91
2022-07-29T22:00:54.093Z,100836.79
2022-07-29T22:03:22.336Z,100835.52
2022-07-29T22:05:50.089Z,100834.94
2022-07-29T22:08:21.135Z,100829.84
2022-07-29T22:10:49.652Z,100835.80
2022-07-29T22:13:19.718Z,100837.95
2022-07-29T22:15:48.270Z,100838.45
2022-07-29T22:18:21.056Z,100833.95
2022-07-29T22:20:50.832Z,100838.83
2022-07-29T22:23:18.803Z,100836.00
2022-07-29T22:25:46.984Z,100834.42
2022-07-29T22:28:15.040Z,100835.48
2022-07-29T22:30:43.221Z,100833.11
2022-07-29T22:33:17.568Z,100834.35
2022-07-29T22:35:48.682Z,100831.19
2022-07-29T22:38:18.255Z,100825.73
2022-07-29T22:40:48.753Z,100822.91
2022-07-29T22:43:19.035Z,100822.98
2022-07-29T22:45:47.314Z,100822.45
2022-07-29T22:48:15.670Z,100824.57
2022-07-29T22:50:43.841Z,100827.66
2022-07-29T22:53:11.699Z,100827.94
2022-07-29T22:55:39.664Z,100828.11
2022-07-29T22:58:07.741Z,100830.85
2022-07-29T23:00:35.997Z,100828.95
2022-07-29T23:03:04.593Z,100824.36
2022-07-29T23:05:32.816Z,100821.30
2022-07-29T23:08:00.916Z,100824.23
2022-07-29T23:10:28.872Z,100821.88
2022-07-29T23:13:00.278Z,100818.54
2022-07-29T23:15:28.095Z,100815.11
2022-07-29T23:17:55.907Z,100812.89
2022-07-29T23:20:24.029Z,100807.56
2022-07-29T23:22:51.798Z,100820.52
2022-07-29T23:25:19.811Z,100821.86
2022-07-29T23:27:47.950Z,100823.42
2022-07-29T23:30:16.074Z,100823.05
2022-07-29T23:32:43.884Z,100820.05
2022-07-29T23:35:11.885Z,100816.88
2022-07-29T23:37:39.913Z,100821.28
2022-07-29T23:40:13.641Z,100817.49
2022-07-29T23:42:43.014Z,100817.04
2022-07-29T23:45:13.275Z,100818.73
2022-07-29T23:47:41.693Z,100820.87
2022-07-29T23:50:16.372Z,100821.20
2022-07-29T23:52:44.790Z,100821.88
2022-07-29T23:55:36.610Z,100823.59
2022-07-29T23:58:01.617Z,100827.63
